sensor_id;sensor_type;location;lat;lon;timestamp;temperature;humidity
48007;DHT22;33771;48.180;11.400;2024-02-15T00:02:20;8.10;99.90
48007;DHT22;33771;48.180;11.400;2024-02-15T00:04:45;8.10;99.90
48007;DHT22;33771;48.180;11.400;2024-02-15T00:07:11;8.10;99.90
48007;DHT22;33771;48.180;11.400;2024-02-15T00:09:36;8.10;99.90
48007;DHT22;33771;48.180;11.400;2024-02-15T00:12:02;8.10;99.90
48007;DHT22;33771;48.180;11.400;2024-02-15T00:14:27;8.10;99.90
48007;DHT22;33771;48.180;11.400;2024-02-15T00:16:54;8.00;99.90
48007;DHT22;33771;48.180;11.400;2024-02-15T00:19:20;8.00;99.90
48007;DHT22;33771;48.180;11.400;2024-02-15T00:21:47;8.00;99.90
48007;DHT22;33771;48.180;11.400;2024-02-15T00:24:12;8.00;99.90
48007;DHT22;33771;48.180;11.400;2024-02-15T00:26:40;8.00;99.90
48007;DHT22;33771;48.180;11.400;2024-02-15T00:29:05;8.00;99.90
48007;DHT22;33771;48.180;11.400;2024-02-15T00:31:31;8.00;99.90
48007;DHT22;33771;48.180;11.400;2024-02-15T00:33:56;8.00;99.90
48007;DHT22;33771;48.180;11.400;2024-02-15T00:36:21;8.00;99.90
48007;DHT22;33771;48.180;11.400;2024-02-15T00:38:48;8.10;99.90
48007;DHT22;33771;48.180;11.400;2024-02-15T00:41:13;8.10;99.90
48007;DHT22;33771;48.180;11.400;2024-02-15T00:43:39;8.10;99.90
48007;DHT22;33771;48.180;11.400;2024-02-15T00:46:04;8.10;99.90
48007;DHT22;33771;48.180;11.400;2024-02-15T00:48:30;8.10;99.90
48007;DHT22;33771;48.180;11.400;2024-02-15T00:50:55;8.10;99.90
48007;DHT22;33771;48.180;11.400;2024-02-15T00:53:21;8.10;99.90
48007;DHT22;33771;48.180;11.400;2024-02-15T00:55:46;8.10;99.90
48007;DHT22;33771;48.180;11.400;2024-02-15T00:58:12;8.10;99.90
48007;DHT22;33771;48.180;11.400;2024-02-15T01:00:37;8.00;99.90
48007;DHT22;33771;48.180;11.400;2024-02-15T01:03:03;8.00;99.90
48007;DHT22;33771;48.180;11.400;2024-02-15T01:05:29;8.00;99.90
48007;DHT22;33771;48.180;11.400;2024-02-15T01:07:56;8.00;99.90
48007;DHT22;33771;48.180;11.400;2024-02-15T01:10:21;7.90;99.90
48007;DHT22;33771;48.180;11.400;2024-02-15T01:12:47;7.90;99.90
48007;DHT22;33771;48.180;11.400;2024-02-15T01:15:14;7.80;99.90
48007;DHT22;33771;48.180;11.400;2024-02-15T01:17:41;7.80;99.90
48007;DHT22;33771;48.180;11.400;2024-02-15T01:20:06;7.70;99.90
48007;DHT22;33771;48.180;11.400;2024-02-15T01:22:32;7.60;99.90
48007;DHT22;33771;48.180;11.400;2024-02-15T01:24:57;7.60;99.90
48007;DHT22;33771;48.180;11.400;2024-02-15T01:27:23;7.50;99.90
48007;DHT22;33771;48.180;11.400;2024-02-15T01:29:48;7.40;99.90
48007;DHT22;33771;48.180;11.400;2024-02-15T01:32:14;7.30;99.90
48007;DHT22;33771;48.180;11.400;2024-02-15T01:34:39;7.20;99.90
48007;DHT22;33771;48.180;11.400;2024-02-15T01:37:05;7.10;99.90
48007;DHT22;33771;48.180;11.400;2024-02-15T01:39:30;7.10;99.90
48007;DHT22;33771;48.180;11.400;2024-02-15T01:41:56;7.00;99.90
48007;DHT22;33771;48.180;11.400;2024-02-15T01:44:22;6.90;99.90
48007;DHT22;33771;48.180;11.400;2024-02-15T01:46:49;6.90;99.90
48007;DHT22;33771;48.180;11.400;2024-02-15T01:49:15;6.80;99.90
48007;DHT22;33771;48.180;11.400;2024-02-15T01:51:41;6.80;99.90
48007;DHT22;33771;48.180;11.400;2024-02-15T01:54:09;6.80;99.90
48007;DHT22;33771;48.180;11.400;2024-02-15T01:56:35;6.80;99.90
48007;DHT22;33771;48.180;11.400;2024-02-15T01:59:02;6.80;99.90
48007;DHT22;33771;48.180;11.400;2024-02-15T02:01:28;6.80;99.90
48007;DHT22;33771;48.180;11.400;2024-02-15T02:03:56;6.80;99.90
48007;DHT22;33771;48.180;11.400;2024-02-15T02:06:22;6.80;99.90
48007;DHT22;33771;48.180;11.400;2024-02-15T02:08:48;6.90;99.90
48007;DHT22;33771;48.180;11.400;2024-02-15T02:11:13;6.80;99.90
48007;DHT22;33771;48.180;11.400;2024-02-15T02:13:39;6.80;99.90
48007;DHT22;33771;48.180;11.400;2024-02-15T02:16:23;6.90;99.90
48007;DHT22;33771;48.180;11.400;2024-02-15T02:18:49;6.90;99.90
48007;DHT22;33771;48.180;11.400;2024-02-15T02:21:15;6.90;99.90
48007;DHT22;33771;48.180;11.400;2024-02-15T02:23:41;6.90;99.90
48007;DHT22;33771;48.180;11.400;2024-02-15T02:26:07;6.90;99.90
48007;DHT22;33771;48.180;11.400;2024-02-15T02:28:35;6.90;99.90
48007;DHT22;33771;48.180;11.400;2024-02-15T02:31:01;6.90;99.90
48007;DHT22;33771;48.180;11.400;2024-02-15T02:33:27;6.90;99.90
48007;DHT22;33771;48.180;11.400;2024-02-15T02:35:54;7.00;99.90
48007;DHT22;33771;48.180;11.400;2024-02-15T02:38:22;7.00;99.90
48007;DHT22;33771;48.180;11.400;2024-02-15T02:40:51;7.00;99.90
48007;DHT22;33771;48.180;11.400;2024-02-15T02:43:17;7.00;99.90
48007;DHT22;33771;48.180;11.400;2024-02-15T02:45:43;7.00;99.90
48007;DHT22;33771;48.180;11.400;2024-02-15T02:48:10;7.00;99.90
48007;DHT22;33771;48.180;11.400;2024-02-15T02:50:37;7.00;99.90
48007;DHT22;33771;48.180;11.400;2024-02-15T02:53:02;7.00;99.90
48007;DHT22;33771;48.180;11.400;2024-02-15T02:55:28;7.00;99.90
48007;DHT22;33771;48.180;11.400;2024-02-15T02:57:54;7.00;99.90
48007;DHT22;33771;48.180;11.400;2024-02-15T03:00:23;7.00;99.90
48007;DHT22;33771;48.180;11.400;2024-02-15T03:02:48;7.00;99.90
48007;DHT22;33771;48.180;11.400;2024-02-15T03:05:14;7.00;99.90
48007;DHT22;33771;48.180;11.400;2024-02-15T03:07:39;7.00;99.90
48007;DHT22;33771;48.180;11.400;2024-02-15T03:10:06;7.00;99.90
48007;DHT22;33771;48.180;11.400;2024-02-15T03:12:35;7.00;99.90
48007;DHT22;33771;48.180;11.400;2024-02-15T03:15:01;6.90;99.90
48007;DHT22;33771;48.180;11.400;2024-02-15T03:17:27;6.90;99.90
48007;DHT22;33771;48.180;11.400;2024-02-15T03:19:52;6.90;99.90
48007;DHT22;33771;48.180;11.400;2024-02-15T03:22:18;6.90;99.90
48007;DHT22;33771;48.180;11.400;2024-02-15T03:24:43;6.90;99.90
48007;DHT22;33771;48.180;11.400;2024-02-15T03:27:09;6.90;99.90
48007;DHT22;33771;48.180;11.400;2024-02-15T03:29:40;6.90;99.90
48007;DHT22;33771;48.180;11.400;2024-02-15T03:32:06;6.90;99.90
48007;DHT22;33771;48.180;11.400;2024-02-15T03:34:31;6.90;99.90
48007;DHT22;33771;48.180;11.400;2024-02-15T03:36:57;6.80;99.90
48007;DHT22;33771;48.180;11.400;2024-02-15T03:39:23;6.80;99.90
48007;DHT22;33771;48.180;11.400;2024-02-15T03:41:49;6.80;99.90
48007;DHT22;33771;48.180;11.400;2024-02-15T03:44:15;6.80;99.90
48007;DHT22;33771;48.180;11.400;2024-02-15T03:46:44;6.80;99.90
48007;DHT22;33771;48.180;11.400;2024-02-15T03:49:19;6.70;99.90
48007;DHT22;33771;48.180;11.400;2024-02-15T03:51:45;6.70;99.90
48007;DHT22;33771;48.180;11.400;2024-02-15T03:54:11;6.60;99.90
48007;DHT22;33771;48.180;11.400;2024-02-15T03:56:46;6.60;99.90
48007;DHT22;33771;48.180;11.400;2024-02-15T03:59:12;6.50;99.90
48007;DHT22;33771;48.180;11.400;2024-02-15T04:01:38;6.40;99.90
48007;DHT22;33771;48.180;11.400;2024-02-15T04:04:05;6.40;99.90
48007;DHT22;33771;48.180;11.400;2024-02-15T04:06:30;6.40;99.90
48007;DHT22;33771;48.180;11.400;2024-02-15T04:08:58;6.30;99.90
48007;DHT22;33771;48.180;11.400;2024-02-15T04:11:25;6.30;99.90
48007;DHT22;33771;48.180;11.400;2024-02-15T04:13:50;6.20;99.90
48007;DHT22;33771;48.180;11.400;2024-02-15T04:16:16;6.20;99.90
48007;DHT22;33771;48.180;11.400;2024-02-15T04:18:42;6.20;99.90
48007;DHT22;33771;48.180;11.400;2024-02-15T04:21:09;6.10;99.90
48007;DHT22;33771;48.180;11.400;2024-02-15T04:23:34;6.10;99.90
48007;DHT22;33771;48.180;11.400;2024-02-15T04:26:00;6.10;99.90
48007;DHT22;33771;48.180;11.400;2024-02-15T04:28:25;6.00;99.90
48007;DHT22;33771;48.180;11.400;2024-02-15T04:30:52;6.00;99.90
48007;DHT22;33771;48.180;11.400;2024-02-15T04:33:18;6.00;99.90
48007;DHT22;33771;48.180;11.400;2024-02-15T04:35:43;5.90;99.90
48007;DHT22;33771;48.180;11.400;2024-02-15T04:38:09;5.90;99.90
48007;DHT22;33771;48.180;11.400;2024-02-15T04:40:35;5.80;99.90
48007;DHT22;33771;48.180;11.400;2024-02-15T04:43:02;5.80;99.90
48007;DHT22;33771;48.180;11.400;2024-02-15T04:45:29;5.70;99.90
48007;DHT22;33771;48.180;11.400;2024-02-15T04:47:56;5.60;99.90
48007;DHT22;33771;48.180;11.400;2024-02-15T04:50:28;5.60;99.90
48007;DHT22;33771;48.180;11.400;2024-02-15T04:52:54;5.50;99.90
48007;DHT22;33771;48.180;11.400;2024-02-15T04:55:20;5.40;99.90
48007;DHT22;33771;48.180;11.400;2024-02-15T04:57:48;5.40;99.90
48007;DHT22;33771;48.180;11.400;2024-02-15T05:00:15;5.30;99.90
48007;DHT22;33771;48.180;11.400;2024-02-15T05:02:41;5.30;99.90
48007;DHT22;33771;48.180;11.400;2024-02-15T05:05:09;5.20;99.90
48007;DHT22;33771;48.180;11.400;2024-02-15T05:07:34;5.20;99.90
48007;DHT22;33771;48.180;11.400;2024-02-15T05:10:03;5.10;99.90
48007;DHT22;33771;48.180;11.400;2024-02-15T05:12:31;5.10;99.90
48007;DHT22;33771;48.180;11.400;2024-02-15T05:14:59;5.00;99.90
48007;DHT22;33771;48.180;11.400;2024-02-15T05:17:24;5.00;99.90
48007;DHT22;33771;48.180;11.400;2024-02-15T05:19:50;4.90;99.90
48007;DHT22;33771;48.180;11.400;2024-02-15T05:22:15;4.90;99.90
48007;DHT22;33771;48.180;11.400;2024-02-15T05:24:41;4.80;99.90
48007;DHT22;33771;48.180;11.400;2024-02-15T05:27:06;4.80;99.90
48007;DHT22;33771;48.180;11.400;2024-02-15T05:29:32;4.80;99.90
48007;DHT22;33771;48.180;11.400;2024-02-15T05:32:01;4.70;99.90
48007;DHT22;33771;48.180;11.400;2024-02-15T05:34:26;4.60;99.90
48007;DHT22;33771;48.180;11.400;2024-02-15T05:36:52;4.60;99.90
48007;DHT22;33771;48.180;11.400;2024-02-15T05:39:17;4.50;99.90
48007;DHT22;33771;48.180;11.400;2024-02-15T05:41:46;4.50;99.90
48007;DHT22;33771;48.180;11.400;2024-02-15T05:44:12;4.40;99.90
48007;DHT22;33771;48.180;11.400;2024-02-15T05:46:39;4.40;99.90
48007;DHT22;33771;48.180;11.400;2024-02-15T05:49:05;4.40;99.90
48007;DHT22;33771;48.180;11.400;2024-02-15T05:51:31;4.30;99.90
48007;DHT22;33771;48.180;11.400;2024-02-15T05:53:57;4.30;99.90
48007;DHT22;33771;48.180;11.400;2024-02-15T05:56:26;4.30;99.90
48007;DHT22;33771;48.180;11.400;2024-02-15T05:58:52;4.30;99.90
48007;DHT22;33771;48.180;11.400;2024-02-15T06:01:17;4.30;99.90
48007;DHT22;33771;48.180;11.400;2024-02-15T06:03:43;4.20;99.90
48007;DHT22;33771;48.180;11.400;2024-02-15T06:06:10;4.20;99.90
48007;DHT22;33771;48.180;11.400;2024-02-15T06:08:37;4.20;99.90
48007;DHT22;33771;48.180;11.400;2024-02-15T06:11:03;4.20;99.90
48007;DHT22;33771;48.180;11.400;2024-02-15T06:13:29;4.10;99.90
48007;DHT22;33771;48.180;11.400;2024-02-15T06:15:55;4.10;99.90
48007;DHT22;33771;48.180;11.400;2024-02-15T06:18:20;4.10;99.90
48007;DHT22;33771;48.180;11.400;2024-02-15T06:20:54;4.10;99.90
48007;DHT22;33771;48.180;11.400;2024-02-15T06:23:22;4.10;99.90
48007;DHT22;33771;48.180;11.400;2024-02-15T06:25:50;4.10;99.90
48007;DHT22;33771;48.180;11.400;2024-02-15T06:28:16;4.10;99.90
48007;DHT22;33771;48.180;11.400;2024-02-15T06:31:00;4.10;99.90
48007;DHT22;33771;48.180;11.400;2024-02-15T06:33:44;4.10;99.90
48007;DHT22;33771;48.180;11.400;2024-02-15T06:36:28;4.10;99.90
48007;DHT22;33771;48.180;11.400;2024-02-15T06:39:12;4.20;99.90
48007;DHT22;33771;48.180;11.400;2024-02-15T06:41:57;4.20;99.90
48007;DHT22;33771;48.180;11.400;2024-02-15T06:44:22;4.20;99.90
48007;DHT22;33771;48.180;11.400;2024-02-15T06:46:49;4.30;99.90
48007;DHT22;33771;48.180;11.400;2024-02-15T06:49:15;4.30;99.90
48007;DHT22;33771;48.180;11.400;2024-02-15T06:51:41;4.30;99.90
48007;DHT22;33771;48.180;11.400;2024-02-15T06:54:07;4.30;99.90
48007;DHT22;33771;48.180;11.400;2024-02-15T06:56:39;4.40;99.90
48007;DHT22;33771;48.180;11.400;2024-02-15T06:59:05;4.30;99.90
48007;DHT22;33771;48.180;11.400;2024-02-15T07:01:30;4.30;99.90
48007;DHT22;33771;48.180;11.400;2024-02-15T07:03:56;4.30;99.90
48007;DHT22;33771;48.180;11.400;2024-02-15T07:06:21;4.30;99.90
48007;DHT22;33771;48.180;11.400;2024-02-15T07:08:47;4.40;99.90
48007;DHT22;33771;48.180;11.400;2024-02-15T07:11:16;4.30;99.90
48007;DHT22;33771;48.180;11.400;2024-02-15T07:13:41;4.40;99.90
48007;DHT22;33771;48.180;11.400;2024-02-15T07:16:07;4.40;99.90
48007;DHT22;33771;48.180;11.400;2024-02-15T07:18:33;4.40;99.90
48007;DHT22;33771;48.180;11.400;2024-02-15T07:20:59;4.40;99.90
48007;DHT22;33771;48.180;11.400;2024-02-15T07:23:26;4.40;99.90
48007;DHT22;33771;48.180;11.400;2024-02-15T07:25:52;4.40;99.90
48007;DHT22;33771;48.180;11.400;2024-02-15T07:28:19;4.40;99.90
48007;DHT22;33771;48.180;11.400;2024-02-15T07:30:46;4.50;99.90
48007;DHT22;33771;48.180;11.400;2024-02-15T07:33:14;4.50;99.90
48007;DHT22;33771;48.180;11.400;2024-02-15T07:35:43;4.60;99.90
48007;DHT22;33771;48.180;11.400;2024-02-15T07:38:09;4.60;99.90
48007;DHT22;33771;48.180;11.400;2024-02-15T07:40:36;4.70;99.90
48007;DHT22;33771;48.180;11.400;2024-02-15T07:43:05;4.70;99.90
48007;DHT22;33771;48.180;11.400;2024-02-15T07:45:31;4.80;99.90
48007;DHT22;33771;48.180;11.400;2024-02-15T07:48:00;4.80;99.90
48007;DHT22;33771;48.180;11.400;2024-02-15T07:50:26;4.90;99.90
48007;DHT22;33771;48.180;11.400;2024-02-15T07:52:52;4.90;99.90
48007;DHT22;33771;48.180;11.400;2024-02-15T07:55:18;5.00;99.90
48007;DHT22;33771;48.180;11.400;2024-02-15T07:57:44;5.10;99.90
48007;DHT22;33771;48.180;11.400;2024-02-15T08:00:12;5.10;99.90
48007;DHT22;33771;48.180;11.400;2024-02-15T08:02:38;5.20;99.90
48007;DHT22;33771;48.180;11.400;2024-02-15T08:05:07;5.30;99.90
48007;DHT22;33771;48.180;11.400;2024-02-15T08:07:45;5.40;99.90
48007;DHT22;33771;48.180;11.400;2024-02-15T08:10:12;5.50;99.90
48007;DHT22;33771;48.180;11.400;2024-02-15T08:12:38;5.70;99.90
48007;DHT22;33771;48.180;11.400;2024-02-15T08:15:04;5.90;99.90
48007;DHT22;33771;48.180;11.400;2024-02-15T08:17:30;6.00;99.90
48007;DHT22;33771;48.180;11.400;2024-02-15T08:19:55;6.20;99.90
48007;DHT22;33771;48.180;11.400;2024-02-15T08:22:21;6.30;99.90
48007;DHT22;33771;48.180;11.400;2024-02-15T08:24:52;6.50;99.90
48007;DHT22;33771;48.180;11.400;2024-02-15T08:27:17;6.60;99.90
48007;DHT22;33771;48.180;11.400;2024-02-15T08:29:43;6.80;99.90
48007;DHT22;33771;48.180;11.400;2024-02-15T08:32:08;7.00;99.90
48007;DHT22;33771;48.180;11.400;2024-02-15T08:34:34;7.30;99.90
48007;DHT22;33771;48.180;11.400;2024-02-15T08:36:59;7.50;99.90
48007;DHT22;33771;48.180;11.400;2024-02-15T08:39:25;7.70;99.90
48007;DHT22;33771;48.180;11.400;2024-02-15T08:41:51;8.00;99.90
48007;DHT22;33771;48.180;11.400;2024-02-15T08:44:18;8.20;99.90
48007;DHT22;33771;48.180;11.400;2024-02-15T08:46:44;8.40;99.90
48007;DHT22;33771;48.180;11.400;2024-02-15T08:49:10;8.60;99.90
48007;DHT22;33771;48.180;11.400;2024-02-15T08:51:39;8.90;99.90
48007;DHT22;33771;48.180;11.400;2024-02-15T08:54:04;9.10;99.90
48007;DHT22;33771;48.180;11.400;2024-02-15T08:56:30;9.40;99.90
48007;DHT22;33771;48.180;11.400;2024-02-15T08:58:55;9.60;99.90
48007;DHT22;33771;48.180;11.400;2024-02-15T09:01:22;9.90;99.90
48007;DHT22;33771;48.180;11.400;2024-02-15T09:03:48;10.10;99.90
48007;DHT22;33771;48.180;11.400;2024-02-15T09:06:13;10.30;99.90
48007;DHT22;33771;48.180;11.400;2024-02-15T09:08:40;10.50;99.90
48007;DHT22;33771;48.180;11.400;2024-02-15T09:11:05;10.70;99.90
48007;DHT22;33771;48.180;11.400;2024-02-15T09:13:31;10.90;99.90
48007;DHT22;33771;48.180;11.400;2024-02-15T09:15:57;11.10;99.90
48007;DHT22;33771;48.180;11.400;2024-02-15T09:18:23;11.20;99.90
48007;DHT22;33771;48.180;11.400;2024-02-15T09:20:48;11.40;99.90
48007;DHT22;33771;48.180;11.400;2024-02-15T09:23:20;11.50;99.90
48007;DHT22;33771;48.180;11.400;2024-02-15T09:25:46;11.60;99.90
48007;DHT22;33771;48.180;11.400;2024-02-15T09:28:15;11.70;99.90
48007;DHT22;33771;48.180;11.400;2024-02-15T09:30:40;11.80;99.90
48007;DHT22;33771;48.180;11.400;2024-02-15T09:33:06;11.90;99.90
48007;DHT22;33771;48.180;11.400;2024-02-15T09:35:31;11.90;99.90
48007;DHT22;33771;48.180;11.400;2024-02-15T09:37:57;11.90;99.90
48007;DHT22;33771;48.180;11.400;2024-02-15T09:40:22;11.80;99.90
48007;DHT22;33771;48.180;11.400;2024-02-15T09:42:51;11.90;99.90
48007;DHT22;33771;48.180;11.400;2024-02-15T09:45:17;11.90;99.90
48007;DHT22;33771;48.180;11.400;2024-02-15T09:47:44;11.90;99.90
48007;DHT22;33771;48.180;11.400;2024-02-15T09:50:10;11.90;99.90
48007;DHT22;33771;48.180;11.400;2024-02-15T09:52:39;12.00;99.90
48007;DHT22;33771;48.180;11.400;2024-02-15T09:55:06;12.00;99.90
48007;DHT22;33771;48.180;11.400;2024-02-15T09:57:35;12.10;99.90
48007;DHT22;33771;48.180;11.400;2024-02-15T10:00:01;12.10;99.90
48007;DHT22;33771;48.180;11.400;2024-02-15T10:02:28;12.20;99.90
48007;DHT22;33771;48.180;11.400;2024-02-15T10:04:56;12.20;99.90
48007;DHT22;33771;48.180;11.400;2024-02-15T10:07:22;12.30;99.90
48007;DHT22;33771;48.180;11.400;2024-02-15T10:09:48;12.40;99.90
48007;DHT22;33771;48.180;11.400;2024-02-15T10:12:13;12.40;99.90
48007;DHT22;33771;48.180;11.400;2024-02-15T10:14:38;12.40;99.90
48007;DHT22;33771;48.180;11.400;2024-02-15T10:17:12;12.60;99.90
48007;DHT22;33771;48.180;11.400;2024-02-15T10:19:38;12.80;99.90
48007;DHT22;33771;48.180;11.400;2024-02-15T10:22:08;12.90;99.90
48007;DHT22;33771;48.180;11.400;2024-02-15T10:24:34;13.00;99.90
48007;DHT22;33771;48.180;11.400;2024-02-15T10:27:00;13.00;99.90
48007;DHT22;33771;48.180;11.400;2024-02-15T10:29:29;13.10;99.90
48007;DHT22;33771;48.180;11.400;2024-02-15T10:31:56;13.20;99.90
48007;DHT22;33771;48.180;11.400;2024-02-15T10:34:22;13.30;99.90
48007;DHT22;33771;48.180;11.400;2024-02-15T10:36:48;13.40;99.90
48007;DHT22;33771;48.180;11.400;2024-02-15T10:39:18;13.60;99.90
48007;DHT22;33771;48.180;11.400;2024-02-15T10:41:49;13.60;99.90
48007;DHT22;33771;48.180;11.400;2024-02-15T10:44:15;13.70;99.90
48007;DHT22;33771;48.180;11.400;2024-02-15T10:46:41;13.90;99.90
48007;DHT22;33771;48.180;11.400;2024-02-15T10:49:07;14.10;99.90
48007;DHT22;33771;48.180;11.400;2024-02-15T10:51:33;14.20;99.90
48007;DHT22;33771;48.180;11.400;2024-02-15T10:54:01;14.40;99.90
48007;DHT22;33771;48.180;11.400;2024-02-15T10:56:32;14.50;99.90
48007;DHT22;33771;48.180;11.400;2024-02-15T10:59:01;14.70;99.90
48007;DHT22;33771;48.180;11.400;2024-02-15T11:01:30;14.80;99.90
48007;DHT22;33771;48.180;11.400;2024-02-15T11:03:59;14.80;99.90
48007;DHT22;33771;48.180;11.400;2024-02-15T11:06:28;14.90;99.90
48007;DHT22;33771;48.180;11.400;2024-02-15T11:08:55;14.90;99.90
48007;DHT22;33771;48.180;11.400;2024-02-15T11:11:21;14.90;99.90
48007;DHT22;33771;48.180;11.400;2024-02-15T11:13:47;14.90;99.90
48007;DHT22;33771;48.180;11.400;2024-02-15T11:18:59;14.90;99.90
48007;DHT22;33771;48.180;11.400;2024-02-15T11:24:25;15.10;99.90
48007;DHT22;33771;48.180;11.400;2024-02-15T11:26:51;15.10;99.90
48007;DHT22;33771;48.180;11.400;2024-02-15T11:29:54;15.20;99.90
48007;DHT22;33771;48.180;11.400;2024-02-15T11:32:40;15.30;99.90
48007;DHT22;33771;48.180;11.400;2024-02-15T11:40:27;15.70;99.90
48007;DHT22;33771;48.180;11.400;2024-02-15T11:42:58;15.80;99.90
48007;DHT22;33771;48.180;11.400;2024-02-15T11:45:24;15.90;99.90
48007;DHT22;33771;48.180;11.400;2024-02-15T11:47:51;16.00;99.90
48007;DHT22;33771;48.180;11.400;2024-02-15T11:50:20;16.10;99.90
48007;DHT22;33771;48.180;11.400;2024-02-15T11:52:46;16.10;99.90
48007;DHT22;33771;48.180;11.400;2024-02-15T11:55:14;16.10;99.90
48007;DHT22;33771;48.180;11.400;2024-02-15T11:57:40;16.10;99.90
48007;DHT22;33771;48.180;11.400;2024-02-15T12:00:20;16.00;99.90
48007;DHT22;33771;48.180;11.400;2024-02-15T12:03:04;16.00;99.90
48007;DHT22;33771;48.180;11.400;2024-02-15T12:05:49;16.00;99.90
48007;DHT22;33771;48.180;11.400;2024-02-15T12:08:33;16.10;99.90
48007;DHT22;33771;48.180;11.400;2024-02-15T12:11:17;16.00;99.90
48007;DHT22;33771;48.180;11.400;2024-02-15T12:14:01;15.90;99.90
48007;DHT22;33771;48.180;11.400;2024-02-15T12:16:46;15.80;99.90
48007;DHT22;33771;48.180;11.400;2024-02-15T12:19:30;15.70;99.90
48007;DHT22;33771;48.180;11.400;2024-02-15T12:21:55;15.70;99.90
48007;DHT22;33771;48.180;11.400;2024-02-15T12:24:22;15.60;99.90
48007;DHT22;33771;48.180;11.400;2024-02-15T12:26:52;15.50;99.90
48007;DHT22;33771;48.180;11.400;2024-02-15T12:29:24;15.50;99.90
48007;DHT22;33771;48.180;11.400;2024-02-15T12:31:50;15.70;99.90
48007;DHT22;33771;48.180;11.400;2024-02-15T12:34:16;15.80;99.90
48007;DHT22;33771;48.180;11.400;2024-02-15T12:36:45;16.10;99.90
48007;DHT22;33771;48.180;11.400;2024-02-15T12:39:11;16.10;99.90
48007;DHT22;33771;48.180;11.400;2024-02-15T12:41:40;16.20;99.90
48007;DHT22;33771;48.180;11.400;2024-02-15T12:44:06;16.40;99.90
48007;DHT22;33771;48.180;11.400;2024-02-15T12:46:36;16.40;99.90
48007;DHT22;33771;48.180;11.400;2024-02-15T12:49:45;16.30;99.90
48007;DHT22;33771;48.180;11.400;2024-02-15T12:51:52;16.20;99.90
48007;DHT22;33771;48.180;11.400;2024-02-15T12:54:21;16.10;99.90
48007;DHT22;33771;48.180;11.400;2024-02-15T12:56:47;16.10;99.90
48007;DHT22;33771;48.180;11.400;2024-02-15T12:59:18;16.00;99.90
48007;DHT22;33771;48.180;11.400;2024-02-15T13:01:49;16.00;99.90
48007;DHT22;33771;48.180;11.400;2024-02-15T13:04:22;16.10;99.90
48007;DHT22;33771;48.180;11.400;2024-02-15T13:06:48;16.00;99.90
48007;DHT22;33771;48.180;11.400;2024-02-15T13:09:14;16.00;99.90
48007;DHT22;33771;48.180;11.400;2024-02-15T13:11:40;16.10;99.90
48007;DHT22;33771;48.180;11.400;2024-02-15T13:14:05;16.10;99.90
48007;DHT22;33771;48.180;11.400;2024-02-15T13:16:31;16.10;99.90
48007;DHT22;33771;48.180;11.400;2024-02-15T13:18:56;16.20;99.90
48007;DHT22;33771;48.180;11.400;2024-02-15T13:21:24;16.10;99.90
48007;DHT22;33771;48.180;11.400;2024-02-15T13:23:55;16.20;99.90
48007;DHT22;33771;48.180;11.400;2024-02-15T13:26:21;16.10;99.90
48007;DHT22;33771;48.180;11.400;2024-02-15T13:28:48;16.00;99.90
48007;DHT22;33771;48.180;11.400;2024-02-15T13:31:14;16.00;99.90
48007;DHT22;33771;48.180;11.400;2024-02-15T13:33:40;16.00;99.90
48007;DHT22;33771;48.180;11.400;2024-02-15T13:36:06;16.00;99.90
48007;DHT22;33771;48.180;11.400;2024-02-15T13:38:36;16.10;99.90
48007;DHT22;33771;48.180;11.400;2024-02-15T13:41:02;16.20;99.90
48007;DHT22;33771;48.180;11.400;2024-02-15T13:43:28;16.30;99.90
48007;DHT22;33771;48.180;11.400;2024-02-15T13:45:53;16.30;99.90
48007;DHT22;33771;48.180;11.400;2024-02-15T13:48:19;16.40;99.90
48007;DHT22;33771;48.180;11.400;2024-02-15T13:50:44;16.20;99.90
48007;DHT22;33771;48.180;11.400;2024-02-15T13:53:10;16.20;99.90
48007;DHT22;33771;48.180;11.400;2024-02-15T13:55:35;16.10;99.90
48007;DHT22;33771;48.180;11.400;2024-02-15T13:58:02;16.10;99.90
48007;DHT22;33771;48.180;11.400;2024-02-15T14:00:28;16.20;99.90
48007;DHT22;33771;48.180;11.400;2024-02-15T14:02:59;16.20;99.90
48007;DHT22;33771;48.180;11.400;2024-02-15T14:05:26;16.10;99.90
48007;DHT22;33771;48.180;11.400;2024-02-15T14:08:02;16.10;99.90
48007;DHT22;33771;48.180;11.400;2024-02-15T14:10:28;16.20;99.90
48007;DHT22;33771;48.180;11.400;2024-02-15T14:12:54;16.30;99.90
48007;DHT22;33771;48.180;11.400;2024-02-15T14:15:29;16.30;99.90
48007;DHT22;33771;48.180;11.400;2024-02-15T14:17:55;16.40;99.90
48007;DHT22;33771;48.180;11.400;2024-02-15T14:20:21;16.40;99.90
48007;DHT22;33771;48.180;11.400;2024-02-15T14:22:47;16.50;99.90
48007;DHT22;33771;48.180;11.400;2024-02-15T14:25:21;16.50;99.90
48007;DHT22;33771;48.180;11.400;2024-02-15T14:27:47;16.50;99.90
48007;DHT22;33771;48.180;11.400;2024-02-15T14:30:13;16.50;99.90
48007;DHT22;33771;48.180;11.400;2024-02-15T14:32:57;16.40;99.90
48007;DHT22;33771;48.180;11.400;2024-02-15T14:35:26;16.40;99.90
48007;DHT22;33771;48.180;11.400;2024-02-15T14:37:52;16.30;99.90
48007;DHT22;33771;48.180;11.400;2024-02-15T14:40:18;16.30;99.90
48007;DHT22;33771;48.180;11.400;2024-02-15T14:42:44;16.30;99.90
48007;DHT22;33771;48.180;11.400;2024-02-15T14:45:10;16.20;99.90
48007;DHT22;33771;48.180;11.400;2024-02-15T14:47:36;16.10;99.90
48007;DHT22;33771;48.180;11.400;2024-02-15T14:50:02;16.10;99.90
48007;DHT22;33771;48.180;11.400;2024-02-15T14:52:29;15.90;99.90
48007;DHT22;33771;48.180;11.400;2024-02-15T14:54:54;15.90;99.90
48007;DHT22;33771;48.180;11.400;2024-02-15T14:57:20;15.80;99.90
48007;DHT22;33771;48.180;11.400;2024-02-15T14:59:45;15.60;99.90
48007;DHT22;33771;48.180;11.400;2024-02-15T15:02:11;15.50;99.90
48007;DHT22;33771;48.180;11.400;2024-02-15T15:04:36;15.50;99.90
48007;DHT22;33771;48.180;11.400;2024-02-15T15:07:12;15.30;99.90
48007;DHT22;33771;48.180;11.400;2024-02-15T15:09:56;15.30;99.90
48007;DHT22;33771;48.180;11.400;2024-02-15T15:12:41;15.20;99.90
48007;DHT22;33771;48.180;11.400;2024-02-15T15:15:11;15.10;99.90
48007;DHT22;33771;48.180;11.400;2024-02-15T15:17:38;15.10;99.90
48007;DHT22;33771;48.180;11.400;2024-02-15T15:20:04;15.00;99.90
48007;DHT22;33771;48.180;11.400;2024-02-15T15:22:34;14.90;99.90
48007;DHT22;33771;48.180;11.400;2024-02-15T15:25:00;14.80;99.90
48007;DHT22;33771;48.180;11.400;2024-02-15T15:27:27;14.80;99.90
48007;DHT22;33771;48.180;11.400;2024-02-15T15:29:52;14.70;99.90
48007;DHT22;33771;48.180;11.400;2024-02-15T15:32:17;14.70;99.90
48007;DHT22;33771;48.180;11.400;2024-02-15T15:34:43;14.60;99.90
48007;DHT22;33771;48.180;11.400;2024-02-15T15:37:08;14.60;99.90
48007;DHT22;33771;48.180;11.400;2024-02-15T15:39:37;14.50;99.90